Time;durP1;ratioP1;P1;durP2;ratioP2;P2;SDS_P1;SDS_P2;PMS_P1;PMS_P2;Temp;Humidity;BMP_temperature;BMP_pressure;BME280_temperature;BME280_humidity;BME280_pressure;Samples;Min_cycle;Max_cycle;Signal;HPM_P1;HPM_P2
2023/08/25 00:02:24;;;;;;;10.57;5.55;;;;;;;;;;5082147;28;20059;-62
2023/08/25 00:04:51;;;;;;;11.32;5.68;;;;;;;;;;5097058;28;20105;-62
2023/08/25 00:07:17;;;;;;;11.80;5.90;;;;;;;;;;5090870;28;20081;-61
2023/08/25 00:09:45;;;;;;;12.85;5.97;;;;;;;;;;5099390;28;20055;-62
2023/08/25 00:12:13;;;;;;;16.70;9.40;;;;;;;;;;5089770;28;20130;-65
2023/08/25 00:14:39;;;;;;;;;;;;;;;;;;5080523;28;20056;-64
2023/08/25 00:17:08;;;;;;;21.05;11.27;;;;;;;;;;5074917;28;19935;-64
2023/08/25 00:19:34;;;;;;;11.88;6.72;;;;;;;;;;5089322;28;20064;-62
2023/08/25 00:22:01;;;;;;;10.50;5.93;;;;;;;;;;5084844;28;20044;-65
2023/08/25 00:24:28;;;;;;;12.75;6.35;;;;;;;;;;5077498;28;20051;-63
2023/08/25 00:26:55;;;;;;;11.25;6.03;;;;;;;;;;5079548;28;20052;-64
2023/08/25 00:29:23;;;;;;;9.85;5.95;;;;;;;;;;5104022;28;20055;-65
2023/08/25 00:31:49;;;;;;;12.88;6.47;;;;;;;;;;5105732;28;20143;-64
2023/08/25 00:34:16;;;;;;;11.35;6.55;;;;;;;;;;5096269;27;20120;-63
2023/08/25 00:36:43;;;;;;;11.48;6.35;;;;;;;;;;5092327;27;20063;-62
2023/08/25 00:39:09;;;;;;;14.27;6.78;;;;;;;;;;5100152;28;20144;-64
2023/08/25 00:41:36;;;;;;;11.95;6.07;;;;;;;;;;5105213;28;20056;-62
2023/08/25 00:44:03;;;;;;;12.23;6.32;;;;;;;;;;5104222;28;20051;-62
2023/08/25 00:46:32;;;;;;;15.13;6.63;;;;;;;;;;5099284;27;21305;-63
2023/08/25 00:48:59;;;;;;;12.38;6.70;;;;;;;;;;5115152;27;20055;-62
2023/08/25 00:51:26;;;;;;;14.68;6.95;;;;;;;;;;5101484;28;20172;-63
2023/08/25 00:53:54;;;;;;;13.77;6.63;;;;;;;;;;5117898;27;20063;-61
2023/08/25 00:56:21;;;;;;;12.88;6.93;;;;;;;;;;5096605;28;20086;-64
2023/08/25 00:58:48;;;;;;;11.68;7.22;;;;;;;;;;5099849;28;20047;-62
2023/08/25 01:01:15;;;;;;;14.98;7.45;;;;;;;;;;5102622;28;20078;-65
2023/08/25 01:03:43;;;;;;;16.30;7.60;;;;;;;;;;5102081;28;20142;-62
2023/08/25 01:06:10;;;;;;;12.88;8.13;;;;;;;;;;5100610;28;20059;-59
2023/08/25 01:08:38;;;;;;;13.40;7.78;;;;;;;;;;5089928;27;20121;-64
2023/08/25 01:11:21;;;;;;;14.65;7.68;;;;;;;;;;5103390;28;20048;-63
2023/08/25 01:13:54;;;;;;;14.30;7.70;;;;;;;;;;5103228;28;20051;-62
2023/08/25 01:16:24;;;;;;;13.95;8.43;;;;;;;;;;5097203;27;20076;-64
2023/08/25 01:18:53;;;;;;;12.45;7.70;;;;;;;;;;5089270;28;20095;-64
2023/08/25 01:21:21;;;;;;;15.40;8.73;;;;;;;;;;5103372;28;20119;-63
2023/08/25 01:23:55;;;;;;;16.83;8.52;;;;;;;;;;5099061;28;20097;-64
2023/08/25 01:26:24;;;;;;;19.58;9.70;;;;;;;;;;5094618;28;20063;-59
2023/08/25 01:28:51;;;;;;;18.60;9.60;;;;;;;;;;5097381;28;20075;-64
2023/08/25 01:31:19;;;;;;;19.63;10.60;;;;;;;;;;5099241;28;20047;-62
2023/08/25 01:33:46;;;;;;;15.50;9.57;;;;;;;;;;5096260;28;20058;-62
2023/08/25 01:36:18;;;;;;;16.77;10.00;;;;;;;;;;5095149;28;20104;-64
2023/08/25 01:38:50;;;;;;;17.77;10.07;;;;;;;;;;5100639;28;20055;-63
2023/08/25 01:41:23;;;;;;;18.25;10.15;;;;;;;;;;5104427;28;20055;-63
2023/08/25 01:43:53;;;;;;;18.52;9.90;;;;;;;;;;5100043;28;20116;-64
2023/08/25 01:46:21;;;;;;;18.70;9.63;;;;;;;;;;5083225;28;20070;-62
2023/08/25 01:48:51;;;;;;;19.15;9.65;;;;;;;;;;5097508;28;20051;-64
2023/08/25 01:51:18;;;;;;;16.70;9.52;;;;;;;;;;5101222;28;20191;-63
2023/08/25 01:53:47;;;;;;;17.95;9.85;;;;;;;;;;5099685;28;20117;-61
2023/08/25 01:56:14;;;;;;;16.85;10.55;;;;;;;;;;5095184;28;20056;-63
2023/08/25 01:58:41;;;;;;;18.38;10.50;;;;;;;;;;5096926;28;20058;-60
2023/08/25 02:01:09;;;;;;;18.27;10.40;;;;;;;;;;5100305;28;20058;-61
2023/08/25 02:03:36;;;;;;;19.55;10.23;;;;;;;;;;5060236;28;20142;-63
2023/08/25 02:06:03;;;;;;;20.42;10.43;;;;;;;;;;5086009;28;20039;-60
2023/08/25 02:08:30;;;;;;;19.00;10.75;;;;;;;;;;5083631;28;20066;-64
2023/08/25 02:10:57;;;;;;;21.52;10.90;;;;;;;;;;5087916;28;20047;-61
2023/08/25 02:13:24;;;;;;;17.83;10.60;;;;;;;;;;5093042;28;20128;-64
2023/08/25 02:15:52;;;;;;;18.75;11.30;;;;;;;;;;5075084;28;20082;-63
2023/08/25 02:18:20;;;;;;;;;;;;;;;;;;5078822;28;20095;-62
2023/08/25 02:20:47;;;;;;;14.88;9.27;;;;;;;;;;5102538;27;19924;-61
2023/08/25 02:23:14;;;;;;;21.50;11.75;;;;;;;;;;5103124;28;20043;-62
2023/08/25 02:25:40;;;;;;;22.25;11.05;;;;;;;;;;5088487;28;20051;-62
2023/08/25 02:28:07;;;;;;;21.48;11.60;;;;;;;;;;5086384;28;20056;-64
2023/08/25 02:30:34;;;;;;;19.95;11.52;;;;;;;;;;5111647;27;20052;-62
2023/08/25 02:33:00;;;;;;;18.23;11.30;;;;;;;;;;5082642;28;20051;-63
2023/08/25 02:35:28;;;;;;;24.38;11.50;;;;;;;;;;5081636;28;20056;-64
2023/08/25 02:37:59;;;;;;;22.88;12.00;;;;;;;;;;5102978;28;20090;-63
2023/08/25 02:40:27;;;;;;;18.63;11.57;;;;;;;;;;5094231;27;20056;-61
2023/08/25 02:42:55;;;;;;;24.53;12.27;;;;;;;;;;5085706;28;20047;-64
2023/08/25 02:45:23;;;;;;;19.63;10.70;;;;;;;;;;5090023;28;20166;-64
2023/08/25 02:47:49;;;;;;;28.90;12.25;;;;;;;;;;5082896;28;20101;-63
2023/08/25 02:50:16;;;;;;;21.80;12.10;;;;;;;;;;5075399;28;20051;-61
2023/08/25 02:52:44;;;;;;;21.73;12.32;;;;;;;;;;5084282;28;20072;-62
2023/08/25 02:55:14;;;;;;;19.77;12.10;;;;;;;;;;5100689;27;20047;-60
2023/08/25 02:57:41;;;;;;;23.20;12.30;;;;;;;;;;5092284;28;20056;-60
2023/08/25 03:00:13;;;;;;;24.50;12.40;;;;;;;;;;5087010;27;20057;-64
2023/08/25 03:02:40;;;;;;;23.42;12.20;;;;;;;;;;5097658;28;20062;-64
2023/08/25 03:05:07;;;;;;;21.88;12.43;;;;;;;;;;5077993;28;20131;-60
2023/08/25 03:07:34;;;;;;;23.37;12.80;;;;;;;;;;5088549;28;20084;-61
2023/08/25 03:10:03;;;;;;;22.02;12.75;;;;;;;;;;5090858;28;20051;-60
2023/08/25 03:12:29;;;;;;;24.10;12.82;;;;;;;;;;5089222;27;20240;-64
2023/08/25 03:14:56;;;;;;;24.58;13.15;;;;;;;;;;5077772;28;20175;-63
2023/08/25 03:17:23;;;;;;;24.40;13.40;;;;;;;;;;5089158;28;20071;-60
2023/08/25 03:19:50;;;;;;;24.48;13.25;;;;;;;;;;5099321;28;20048;-62
2023/08/25 03:22:16;;;;;;;25.23;13.13;;;;;;;;;;5078407;28;20048;-61
2023/08/25 03:24:43;;;;;;;28.10;13.90;;;;;;;;;;5094614;28;20058;-61
2023/08/25 03:27:11;;;;;;;22.23;13.50;;;;;;;;;;5090303;28;20102;-63
2023/08/25 03:29:38;;;;;;;24.30;13.80;;;;;;;;;;5082608;28;20063;-64
2023/08/25 03:32:05;;;;;;;25.40;13.10;;;;;;;;;;5076349;28;20062;-63
2023/08/25 03:34:32;;;;;;;25.23;14.45;;;;;;;;;;5061892;28;20074;-65
2023/08/25 03:36:59;;;;;;;23.42;13.68;;;;;;;;;;5079117;28;20052;-62
2023/08/25 03:39:26;;;;;;;26.90;13.80;;;;;;;;;;5069703;28;20128;-62
2023/08/25 03:41:53;;;;;;;27.48;14.88;;;;;;;;;;5085522;28;20072;-61
2023/08/25 03:44:21;;;;;;;26.92;13.77;;;;;;;;;;5076978;28;20091;-64
2023/08/25 03:46:48;;;;;;;;;;;;;;;;;;5090824;28;20051;-60
2023/08/25 03:49:14;;;;;;;23.70;12.88;;;;;;;;;;5082394;28;19923;-62
2023/08/25 03:51:41;;;;;;;25.75;13.43;;;;;;;;;;5069471;28;20142;-62
2023/08/25 03:54:08;;;;;;;25.27;14.07;;;;;;;;;;5079780;28;20051;-62
2023/08/25 03:56:34;;;;;;;26.90;14.65;;;;;;;;;;5091819;28;20124;-62
2023/08/25 03:59:01;;;;;;;28.83;14.65;;;;;;;;;;5085942;28;20068;-62
2023/08/25 04:01:29;;;;;;;26.05;14.45;;;;;;;;;;5076779;28;20040;-60
2023/08/25 04:03:56;;;;;;;27.08;14.77;;;;;;;;;;5071667;28;20110;-62
2023/08/25 04:06:22;;;;;;;25.63;14.38;;;;;;;;;;5047356;28;20052;-63
2023/08/25 04:08:49;;;;;;;25.30;14.90;;;;;;;;;;5055137;28;20139;-63
2023/08/25 04:11:16;;;;;;;26.52;15.27;;;;;;;;;;5054783;28;20045;-63
2023/08/25 04:13:42;;;;;;;26.60;14.38;;;;;;;;;;5057402;28;20108;-63
2023/08/25 04:16:09;;;;;;;29.02;15.57;;;;;;;;;;5065234;28;20056;-61
2023/08/25 04:18:37;;;;;;;27.13;15.93;;;;;;;;;;5042222;28;20052;-63
2023/08/25 04:21:04;;;;;;;25.42;15.60;;;;;;;;;;5048723;28;20111;-64
2023/08/25 04:23:31;;;;;;;28.83;15.55;;;;;;;;;;5066472;28;20044;-61
2023/08/25 04:25:57;;;;;;;31.50;15.65;;;;;;;;;;5072211;28;20135;-62
2023/08/25 04:28:25;;;;;;;35.38;15.38;;;;;;;;;;5063853;28;20084;-62
2023/08/25 04:30:52;;;;;;;33.50;15.95;;;;;;;;;;5042974;28;20066;-64
2023/08/25 04:33:19;;;;;;;23.92;15.02;;;;;;;;;;5065727;28;20147;-61
2023/08/25 04:35:47;;;;;;;28.92;15.48;;;;;;;;;;5074128;28;20188;-63
2023/08/25 04:38:14;;;;;;;28.65;14.82;;;;;;;;;;5066860;28;20064;-64
2023/08/25 04:40:41;;;;;;;24.73;14.25;;;;;;;;;;5062448;28;20057;-60
2023/08/25 04:43:08;;;;;;;25.42;14.15;;;;;;;;;;5051321;28;20107;-63
2023/08/25 04:45:34;;;;;;;25.67;15.23;;;;;;;;;;5054034;28;20143;-62
2023/08/25 04:48:01;;;;;;;32.90;15.27;;;;;;;;;;5061220;28;20100;-64
2023/08/25 04:50:28;;;;;;;26.05;15.25;;;;;;;;;;5065704;28;20048;-61
2023/08/25 04:52:57;;;;;;;55.00;30.60;;;;;;;;;;5064858;28;20055;-65
2023/08/25 04:55:23;;;;;;;38.92;19.55;;;;;;;;;;5003287;28;20110;-62
2023/08/25 04:57:50;;;;;;;123.60;63.50;;;;;;;;;;5054172;28;20052;-62
2023/08/25 05:00:17;;;;;;;90.05;46.72;;;;;;;;;;5060867;28;20059;-61
2023/08/25 05:02:44;;;;;;;32.30;18.73;;;;;;;;;;5085029;27;20119;-62
2023/08/25 05:05:11;;;;;;;29.75;16.83;;;;;;;;;;5089308;28;20112;-64
2023/08/25 05:07:38;;;;;;;27.00;15.68;;;;;;;;;;5103729;27;20055;-64
2023/08/25 05:10:15;;;;;;;25.23;14.57;;;;;;;;;;5103598;27;20063;-62
2023/08/25 05:12:42;;;;;;;25.05;14.50;;;;;;;;;;5082617;27;20059;-62
2023/08/25 05:15:10;;;;;;;33.03;18.17;;;;;;;;;;5079604;28;20051;-63
2023/08/25 05:17:37;;;;;;;85.03;45.80;;;;;;;;;;5081347;28;20104;-64
2023/08/25 05:20:05;;;;;;;47.53;23.88;;;;;;;;;;5099072;28;20087;-61
2023/08/25 05:22:32;;;;;;;46.85;24.40;;;;;;;;;;5096899;27;21807;-63
2023/08/25 05:24:58;;;;;;;36.10;19.58;;;;;;;;;;5100843;27;20055;-63
2023/08/25 05:27:26;;;;;;;30.10;16.42;;;;;;;;;;5101951;27;20090;-62
2023/08/25 05:29:53;;;;;;;30.30;15.73;;;;;;;;;;5100702;28;20048;-65
2023/08/25 05:32:20;;;;;;;30.75;16.55;;;;;;;;;;5094416;27;20059;-63
2023/08/25 05:34:47;;;;;;;29.33;16.38;;;;;;;;;;5076625;27;20055;-64
2023/08/25 05:37:14;;;;;;;29.75;15.93;;;;;;;;;;5085219;28;20052;-64
2023/08/25 05:39:40;;;;;;;29.17;16.55;;;;;;;;;;5090716;28;20058;-63
2023/08/25 05:42:09;;;;;;;34.13;16.60;;;;;;;;;;5067892;28;20139;-64
2023/08/25 05:44:37;;;;;;;29.98;15.98;;;;;;;;;;5068146;28;20056;-62
2023/08/25 05:47:04;;;;;;;25.08;15.32;;;;;;;;;;5081057;28;20055;-61
2023/08/25 05:49:31;;;;;;;27.10;15.93;;;;;;;;;;5070529;28;20043;-62
2023/08/25 05:51:58;;;;;;;27.60;15.82;;;;;;;;;;5079875;28;20056;-62
2023/08/25 05:54:24;;;;;;;28.83;15.63;;;;;;;;;;5068828;28;20051;-61
2023/08/25 05:56:51;;;;;;;29.38;16.17;;;;;;;;;;5065768;28;20105;-62
2023/08/25 05:59:18;;;;;;;30.98;16.20;;;;;;;;;;5079325;28;20051;-62
2023/08/25 06:01:46;;;;;;;34.28;15.57;;;;;;;;;;5066971;28;20101;-63
2023/08/25 06:04:13;;;;;;;32.03;18.15;;;;;;;;;;5043228;28;20129;-63
2023/08/25 06:06:41;;;;;;;31.42;17.35;;;;;;;;;;5085612;28;20051;-61
2023/08/25 06:09:08;;;;;;;28.75;15.63;;;;;;;;;;5081334;28;20047;-61
2023/08/25 06:11:35;;;;;;;30.52;16.20;;;;;;;;;;5061196;28;20048;-63
2023/08/25 06:14:03;;;;;;;30.75;15.32;;;;;;;;;;5052916;28;20112;-61
2023/08/25 06:16:29;;;;;;;30.33;14.75;;;;;;;;;;5053788;28;20067;-61
2023/08/25 06:18:57;;;;;;;29.20;16.08;;;;;;;;;;5077641;28;20059;-62
2023/08/25 06:21:24;;;;;;;32.72;17.63;;;;;;;;;;5075625;28;20060;-60
2023/08/25 06:23:51;;;;;;;43.08;21.15;;;;;;;;;;5055150;28;20043;-61
2023/08/25 06:26:18;;;;;;;31.10;17.70;;;;;;;;;;5082024;28;20064;-60
2023/08/25 06:28:44;;;;;;;29.98;16.45;;;;;;;;;;5080194;28;20084;-62
2023/08/25 06:31:11;;;;;;;34.42;17.23;;;;;;;;;;5077940;28;20134;-63
2023/08/25 06:33:39;;;;;;;33.53;16.20;;;;;;;;;;5069948;28;20051;-60
2023/08/25 06:36:08;;;;;;;36.30;15.43;;;;;;;;;;5062451;28;20126;-65
2023/08/25 06:38:35;;;;;;;28.90;15.70;;;;;;;;;;5074809;28;20059;-62
2023/08/25 06:41:03;;;;;;;26.50;14.30;;;;;;;;;;5084750;28;20056;-62
2023/08/25 06:43:33;;;;;;;26.13;15.17;;;;;;;;;;5076802;28;20054;-61
2023/08/25 06:46:00;;;;;;;33.53;16.17;;;;;;;;;;5065920;28;20052;-62
2023/08/25 06:48:28;;;;;;;34.75;17.30;;;;;;;;;;5072915;28;20127;-63
2023/08/25 06:50:55;;;;;;;33.22;16.10;;;;;;;;;;5073710;28;20109;-63
2023/08/25 06:53:23;;;;;;;31.85;15.40;;;;;;;;;;5072821;28;20067;-63
2023/08/25 06:55:50;;;;;;;28.23;14.35;;;;;;;;;;5047525;28;20048;-61
2023/08/25 06:58:17;;;;;;;33.42;15.35;;;;;;;;;;5067579;28;20051;-63
2023/08/25 07:00:43;;;;;;;32.78;15.35;;;;;;;;;;5080831;28;20132;-61
2023/08/25 07:03:10;;;;;;;33.17;15.63;;;;;;;;;;5065778;28;20063;-62
2023/08/25 07:05:38;;;;;;;35.00;15.50;;;;;;;;;;5073066;28;20123;-62
2023/08/25 07:08:06;;;;;;;26.90;14.80;;;;;;;;;;5083851;28;20091;-62
2023/08/25 07:10:34;;;;;;;27.95;14.90;;;;;;;;;;5054796;28;20078;-60
2023/08/25 07:13:01;;;;;;;39.00;15.65;;;;;;;;;;5073053;28;20055;-61
2023/08/25 07:15:28;;;;;;;28.15;16.00;;;;;;;;;;5059897;28;20064;-61
2023/08/25 07:17:55;;;;;;;33.15;15.73;;;;;;;;;;5074935;28;20162;-62
2023/08/25 07:20:24;;;;;;;30.30;14.82;;;;;;;;;;5063646;28;20043;-62
2023/08/25 07:22:51;;;;;;;29.95;14.40;;;;;;;;;;5074689;28;20082;-61
2023/08/25 07:25:19;;;;;;;29.70;15.05;;;;;;;;;;5078478;28;20056;-63
2023/08/25 07:27:47;;;;;;;31.83;14.48;;;;;;;;;;5074368;28;20051;-62
2023/08/25 07:30:14;;;;;;;29.05;13.32;;;;;;;;;;5073627;28;20051;-63
2023/08/25 07:32:44;;;;;;;28.85;15.15;;;;;;;;;;5096011;28;20056;-64
2023/08/25 07:35:10;;;;;;;26.88;14.27;;;;;;;;;;5064042;28;20056;-61
2023/08/25 07:37:41;;;;;;;26.92;14.20;;;;;;;;;;5084024;28;20083;-63
2023/08/25 07:40:10;;;;;;;29.05;14.20;;;;;;;;;;5073779;28;20054;-62
2023/08/25 07:42:37;;;;;;;32.88;14.82;;;;;;;;;;5084190;28;20052;-62
2023/08/25 07:45:07;;;;;;;27.10;13.93;;;;;;;;;;5075592;28;20055;-62
2023/08/25 07:47:35;;;;;;;30.25;14.88;;;;;;;;;;5081295;28;20060;-63
2023/08/25 07:50:03;;;;;;;28.65;14.00;;;;;;;;;;5089890;28;20052;-61
2023/08/25 07:52:30;;;;;;;30.27;14.80;;;;;;;;;;5065820;28;20142;-62
2023/08/25 07:54:56;;;;;;;27.08;14.80;;;;;;;;;;5077324;28;20390;-61
2023/08/25 07:57:23;;;;;;;31.52;14.77;;;;;;;;;;5087717;28;20039;-62
2023/08/25 07:59:50;;;;;;;32.03;16.15;;;;;;;;;;5083702;27;20063;-61
2023/08/25 08:02:18;;;;;;;29.23;15.55;;;;;;;;;;5074797;28;20062;-62
2023/08/25 08:04:44;;;;;;;37.28;15.75;;;;;;;;;;5076974;28;20105;-63
2023/08/25 08:07:11;;;;;;;30.65;15.38;;;;;;;;;;5083068;28;20055;-62
2023/08/25 08:09:44;;;;;;;29.17;14.98;;;;;;;;;;5083759;28;20040;-63
2023/08/25 08:12:10;;;;;;;31.83;15.35;;;;;;;;;;5076992;28;20065;-63
2023/08/25 08:14:37;;;;;;;29.80;15.40;;;;;;;;;;5052163;28;20048;-62
2023/08/25 08:17:04;;;;;;;28.35;13.65;;;;;;;;;;5082892;28;20054;-63
2023/08/25 08:19:32;;;;;;;27.83;14.77;;;;;;;;;;5079144;28;20102;-62
2023/08/25 08:21:59;;;;;;;27.80;10.30;;;;;;;;;;5097854;28;20113;-63
2023/08/25 08:24:31;;;;;;;14.52;6.30;;;;;;;;;;5054377;28;20123;-63
2023/08/25 08:26:59;;;;;;;11.75;4.82;;;;;;;;;;5073509;28;20058;-63
2023/08/25 08:29:27;;;;;;;7.88;3.58;;;;;;;;;;5093435;28;20075;-63
2023/08/25 08:31:56;;;;;;;5.90;2.73;;;;;;;;;;5080818;28;20073;-63
2023/08/25 08:34:24;;;;;;;11.68;2.40;;;;;;;;;;5090519;28;20113;-63
2023/08/25 08:36:52;;;;;;;;;;;;;;;;;;5082926;28;20094;-63
2023/08/25 08:39:19;;;;;;;6.97;3.08;;;;;;;;;;5044451;28;20169;-63
2023/08/25 08:41:48;;;;;;;6.85;3.20;;;;;;;;;;5091930;28;20056;-63
2023/08/25 08:44:18;;;;;;;9.60;5.22;;;;;;;;;;5071034;28;20140;-63
2023/08/25 08:46:46;;;;;;;10.40;5.32;;;;;;;;;;5089307;28;20064;-63
2023/08/25 08:49:13;;;;;;;9.90;5.60;;;;;;;;;;5075540;28;20067;-62
2023/08/25 08:51:42;;;;;;;14.13;6.82;;;;;;;;;;5071374;28;20056;-62
2023/08/25 08:54:10;;;;;;;11.68;5.85;;;;;;;;;;5082348;28;20117;-62
2023/08/25 08:56:36;;;;;;;12.57;6.82;;;;;;;;;;5080716;28;20129;-63
2023/08/25 08:59:06;;;;;;;20.35;8.40;;;;;;;;;;5078660;28;20052;-62
2023/08/25 09:01:34;;;;;;;13.02;7.45;;;;;;;;;;5080207;28;20070;-62
2023/08/25 09:04:09;;;;;;;17.20;8.70;;;;;;;;;;5061428;28;20054;-63
2023/08/25 09:06:38;;;;;;;13.63;7.90;;;;;;;;;;5082258;28;20064;-63
2023/08/25 09:09:08;;;;;;;17.42;8.15;;;;;;;;;;5078237;28;20052;-61
2023/08/25 09:11:37;;;;;;;15.65;8.48;;;;;;;;;;5081598;28;20047;-63
2023/08/25 09:14:05;;;;;;;13.60;7.95;;;;;;;;;;5085922;28;20075;-62
2023/08/25 09:16:33;;;;;;;15.32;8.18;;;;;;;;;;5083190;28;20061;-62
2023/08/25 09:19:00;;;;;;;;;;;;;;;;;;5087047;28;20043;-62
2023/08/25 09:21:27;;;;;;;14.70;8.35;;;;;;;;;;5072767;28;19945;-62
2023/08/25 09:23:55;;;;;;;18.60;9.63;;;;;;;;;;5072660;28;20039;-62
2023/08/25 09:26:23;;;;;;;15.43;8.65;;;;;;;;;;5105254;28;20054;-62
2023/08/25 09:28:53;;;;;;;20.75;10.45;;;;;;;;;;5090469;28;20105;-62
2023/08/25 09:31:24;;;;;;;19.58;10.57;;;;;;;;;;5081273;28;20059;-62
2023/08/25 09:33:53;;;;;;;18.70;10.60;;;;;;;;;;5094329;28;20055;-62
2023/08/25 09:36:19;;;;;;;21.45;11.18;;;;;;;;;;5065161;28;20075;-62
2023/08/25 09:38:47;;;;;;;23.40;10.63;;;;;;;;;;5079329;28;20056;-62
2023/08/25 09:41:23;;;;;;;20.15;10.52;;;;;;;;;;5083370;28;20051;-61
2023/08/25 09:43:51;;;;;;;20.17;10.70;;;;;;;;;;5079168;28;20058;-61
2023/08/25 09:46:26;;;;;;;;;;;;;;;;;;5095903;28;20059;-62
2023/08/25 09:48:53;;;;;;;19.65;10.00;;;;;;;;;;5091412;28;19932;-62
2023/08/25 09:51:20;;;;;;;18.08;10.25;;;;;;;;;;5082082;28;20148;-63
2023/08/25 09:53:50;;;;;;;21.20;10.93;;;;;;;;;;5091046;28;20132;-62
2023/08/25 09:56:18;;;;;;;18.67;10.02;;;;;;;;;;5081152;28;20062;-62
2023/08/25 09:58:45;;;;;;;17.27;9.75;;;;;;;;;;5056176;28;20044;-62
2023/08/25 10:01:14;;;;;;;19.73;10.60;;;;;;;;;;5080902;28;20060;-62
2023/08/25 10:03:41;;;;;;;20.55;10.63;;;;;;;;;;5052862;28;20056;-63
2023/08/25 10:06:09;;;;;;;21.27;10.93;;;;;;;;;;5050184;28;20082;-63
2023/08/25 10:08:36;;;;;;;19.03;10.90;;;;;;;;;;5056184;28;20067;-62
2023/08/25 10:11:04;;;;;;;21.45;11.68;;;;;;;;;;5058260;28;20052;-63
2023/08/25 10:13:32;;;;;;;17.98;10.07;;;;;;;;;;5058156;28;20073;-62
2023/08/25 10:16:04;;;;;;;17.98;9.85;;;;;;;;;;5064905;28;20048;-62
2023/08/25 10:18:44;;;;;;;18.50;10.60;;;;;;;;;;5053301;28;20115;-63
2023/08/25 10:21:13;;;;;;;18.30;11.07;;;;;;;;;;5041368;28;20098;-62
2023/08/25 10:23:41;;;;;;;18.42;10.15;;;;;;;;;;5045984;28;20063;-62
2023/08/25 10:26:09;;;;;;;16.80;9.82;;;;;;;;;;5032195;28;20037;-62
2023/08/25 10:28:37;;;;;;;19.23;9.93;;;;;;;;;;5055297;28;20088;-62
2023/08/25 10:31:04;;;;;;;14.60;9.20;;;;;;;;;;5063902;28;20032;-62
2023/08/25 10:33:47;;;;;;;17.53;9.67;;;;;;;;;;5039624;28;20056;-62
2023/08/25 10:36:16;;;;;;;14.88;8.38;;;;;;;;;;5036848;28;20064;-61
2023/08/25 10:38:46;;;;;;;15.65;8.10;;;;;;;;;;5053015;28;20056;-62
2023/08/25 10:41:18;;;;;;;14.35;8.80;;;;;;;;;;5059877;28;20053;-62
2023/08/25 10:43:52;;;;;;;16.05;8.75;;;;;;;;;;5059057;28;20059;-62
2023/08/25 10:46:20;;;;;;;13.27;8.00;;;;;;;;;;5064665;28;20060;-62
2023/08/25 10:48:49;;;;;;;16.67;8.55;;;;;;;;;;5042259;28;20131;-62
2023/08/25 10:51:20;;;;;;;19.40;9.00;;;;;;;;;;5056581;28;20045;-62
2023/08/25 10:53:52;;;;;;;17.55;8.70;;;;;;;;;;5056535;28;20060;-63
2023/08/25 10:56:25;;;;;;;18.20;9.23;;;;;;;;;;5063853;28;20064;-62
2023/08/25 10:59:00;;;;;;;14.43;8.27;;;;;;;;;;5054511;28;20123;-61
2023/08/25 11:01:28;;;;;;;15.98;8.20;;;;;;;;;;5044448;28;20094;-61
2023/08/25 11:04:07;;;;;;;14.43;8.80;;;;;;;;;;5037590;28;20067;-62
2023/08/25 11:06:40;;;;;;;13.35;9.02;;;;;;;;;;5057193;28;20084;-62
2023/08/25 11:09:07;;;;;;;19.20;11.57;;;;;;;;;;5069287;28;20056;-61
2023/08/25 11:11:36;;;;;;;21.52;12.68;;;;;;;;;;5055775;28;20175;-61
2023/08/25 11:14:03;;;;;;;17.25;10.00;;;;;;;;;;5041892;28;20044;-62
2023/08/25 11:16:30;;;;;;;17.00;10.43;;;;;;;;;;5058797;28;20056;-61
2023/08/25 11:18:57;;;;;;;14.57;9.30;;;;;;;;;;5058239;28;20056;-62
2023/08/25 11:21:27;;;;;;;14.50;9.25;;;;;;;;;;5076615;28;20122;-63
2023/08/25 11:23:57;;;;;;;16.23;8.13;;;;;;;;;;5066410;28;20429;-62
2023/08/25 11:26:24;;;;;;;14.77;7.53;;;;;;;;;;5064012;28;20099;-62
2023/08/25 11:28:52;;;;;;;12.52;7.97;;;;;;;;;;5056262;28;20044;-61
2023/08/25 11:31:22;;;;;;;13.80;7.88;;;;;;;;;;5060730;28;20141;-62
2023/08/25 11:33:52;;;;;;;15.35;6.88;;;;;;;;;;5035565;28;20079;-62
2023/08/25 11:36:19;;;;;;;12.70;7.05;;;;;;;;;;5075282;28;20071;-61
2023/08/25 11:38:51;;;;;;;12.20;7.40;;;;;;;;;;5003451;28;20068;-62
2023/08/25 11:41:18;;;;;;;12.18;8.05;;;;;;;;;;5072219;28;20063;-62
2023/08/25 11:43:51;;;;;;;11.73;7.95;;;;;;;;;;5040952;28;20052;-63
2023/08/25 11:46:18;;;;;;;14.60;7.82;;;;;;;;;;5069201;28;20079;-62
2023/08/25 11:48:48;;;;;;;14.73;7.07;;;;;;;;;;5044837;28;20064;-62
2023/08/25 11:51:16;;;;;;;11.25;6.70;;;;;;;;;;5059966;28;20080;-63
2023/08/25 11:53:50;;;;;;;12.98;6.90;;;;;;;;;;5039000;28;20052;-63
2023/08/25 11:56:19;;;;;;;12.52;7.15;;;;;;;;;;5048884;28;20045;-62
2023/08/25 11:58:47;;;;;;;11.50;7.15;;;;;;;;;;5032892;28;20131;-62
2023/08/25 12:01:14;;;;;;;;;;;;;;;;;;5058806;28;20055;-63
2023/08/25 12:03:42;;;;;;;10.77;7.35;;;;;;;;;;5058730;28;20169;-62
2023/08/25 12:06:11;;;;;;;11.90;7.15;;;;;;;;;;5060955;28;20395;-62
2023/08/25 12:08:40;;;;;;;11.57;6.68;;;;;;;;;;5046808;28;20146;-61
2023/08/25 12:11:10;;;;;;;16.85;8.23;;;;;;;;;;5057553;28;20048;-62
2023/08/25 12:13:43;;;;;;;17.48;10.68;;;;;;;;;;5080990;28;20060;-63
2023/08/25 12:16:13;;;;;;;16.75;7.75;;;;;;;;;;5054683;28;20060;-63
2023/08/25 12:18:42;;;;;;;10.98;6.80;;;;;;;;;;5054574;28;20048;-63
2023/08/25 12:21:09;;;;;;;10.75;6.65;;;;;;;;;;5070670;28;20134;-63
2023/08/25 12:23:39;;;;;;;12.45;7.40;;;;;;;;;;5063514;28;20079;-62
2023/08/25 12:26:09;;;;;;;11.07;7.20;;;;;;;;;;5037929;28;20055;-62
2023/08/25 12:28:36;;;;;;;12.55;7.78;;;;;;;;;;5065624;27;20055;-63
2023/08/25 12:31:03;;;;;;;13.73;7.55;;;;;;;;;;5050687;28;20103;-62
2023/08/25 12:33:33;;;;;;;12.82;7.53;;;;;;;;;;5075207;28;20095;-63
2023/08/25 12:36:00;;;;;;;11.70;7.60;;;;;;;;;;5072525;28;20129;-63
2023/08/25 12:38:29;;;;;;;13.82;7.65;;;;;;;;;;5064296;28;20094;-63
2023/08/25 12:40:58;;;;;;;13.05;7.07;;;;;;;;;;5057744;28;20063;-62
2023/08/25 12:43:25;;;;;;;15.23;7.68;;;;;;;;;;5047764;28;20056;-62
2023/08/25 12:45:52;;;;;;;12.80;7.65;;;;;;;;;;5067053;28;20107;-63
2023/08/25 12:48:20;;;;;;;16.70;9.18;;;;;;;;;;5038970;28;20068;-62
2023/08/25 12:50:47;;;;;;;17.42;9.13;;;;;;;;;;5048542;28;20060;-61
2023/08/25 12:53:15;;;;;;;17.15;9.57;;;;;;;;;;5062360;28;20147;-61
2023/08/25 12:55:43;;;;;;;;;;;;;;;;;;5086160;28;20044;-62
2023/08/25 12:58:10;;;;;;;12.45;7.85;;;;;;;;;;4989851;28;19928;-62
2023/08/25 13:00:40;;;;;;;19.27;10.05;;;;;;;;;;5079473;28;20110;-62
2023/08/25 13:03:08;;;;;;;14.85;9.30;;;;;;;;;;5083623;28;20052;-62
2023/08/25 13:05:35;;;;;;;15.38;9.93;;;;;;;;;;5074424;28;20129;-62
2023/08/25 13:08:02;;;;;;;15.15;9.85;;;;;;;;;;5000081;28;20054;-62
2023/08/25 13:10:29;;;;;;;19.63;9.27;;;;;;;;;;5054431;28;20051;-62
2023/08/25 13:12:56;;;;;;;17.80;9.85;;;;;;;;;;5078419;28;20058;-61
2023/08/25 13:15:23;;;;;;;26.27;11.35;;;;;;;;;;5084639;28;20040;-62
2023/08/25 13:17:51;;;;;;;26.42;14.80;;;;;;;;;;5071591;28;20056;-62
2023/08/25 13:20:18;;;;;;;14.70;10.27;;;;;;;;;;5072202;28;20139;-61
2023/08/25 13:22:46;;;;;;;14.77;9.70;;;;;;;;;;5075154;28;20090;-62
2023/08/25 13:25:16;;;;;;;13.38;8.68;;;;;;;;;;5079807;28;20058;-62
2023/08/25 13:27:43;;;;;;;16.27;9.55;;;;;;;;;;5089627;28;20120;-62
2023/08/25 13:30:12;;;;;;;18.42;9.70;;;;;;;;;;5090179;28;20044;-62
2023/08/25 13:32:38;;;;;;;16.35;9.50;;;;;;;;;;5073850;28;20059;-62
2023/08/25 13:35:08;;;;;;;14.93;8.90;;;;;;;;;;5077637;28;20130;-62
2023/08/25 13:37:35;;;;;;;17.15;9.13;;;;;;;;;;5079314;28;20055;-62
2023/08/25 13:40:02;;;;;;;16.10;9.35;;;;;;;;;;5074310;28;20059;-61
2023/08/25 13:42:29;;;;;;;20.10;11.02;;;;;;;;;;5080838;28;20044;-61
2023/08/25 13:44:55;;;;;;;16.33;9.63;;;;;;;;;;5099652;28;20076;-60
2023/08/25 13:47:24;;;;;;;15.70;9.20;;;;;;;;;;5080650;28;20144;-61
2023/08/25 13:49:58;;;;;;;13.65;8.30;;;;;;;;;;5058630;28;20047;-62
2023/08/25 13:52:26;;;;;;;16.83;9.00;;;;;;;;;;5078322;28;20051;-62
2023/08/25 13:54:55;;;;;;;;;;;;;;;;;;5099400;28;20067;-61
2023/08/25 13:57:24;;;;;;;17.17;9.13;;;;;;;;;;5088356;28;19923;-61
2023/08/25 13:59:51;;;;;;;15.63;9.77;;;;;;;;;;5078761;28;20055;-63
2023/08/25 14:02:18;;;;;;;14.83;8.60;;;;;;;;;;5075461;28;20086;-62
2023/08/25 14:04:45;;;;;;;15.75;9.68;;;;;;;;;;5065183;28;20056;-61
2023/08/25 14:07:14;;;;;;;13.85;8.20;;;;;;;;;;5069597;28;20106;-61
2023/08/25 14:09:48;;;;;;;15.30;8.52;;;;;;;;;;5081901;28;20047;-61
2023/08/25 14:12:22;;;;;;;17.02;8.63;;;;;;;;;;5078935;28;20099;-61
2023/08/25 14:14:50;;;;;;;16.73;8.82;;;;;;;;;;5078156;28;20059;-60
2023/08/25 14:17:18;;;;;;;19.55;8.43;;;;;;;;;;5070460;28;20114;-60
2023/08/25 14:19:54;;;;;;;15.38;8.38;;;;;;;;;;4974672;28;20100;-60
2023/08/25 14:22:21;;;;;;;18.58;8.40;;;;;;;;;;5073833;28;20060;-60
2023/08/25 14:24:53;;;;;;;14.70;8.52;;;;;;;;;;5072491;28;20081;-61
2023/08/25 14:27:27;;;;;;;15.98;8.73;;;;;;;;;;5081235;28;20048;-61
2023/08/25 14:29:53;;;;;;;16.38;7.95;;;;;;;;;;5021148;28;20048;-62
2023/08/25 14:32:20;;;;;;;19.65;9.90;;;;;;;;;;5078272;28;20056;-60